CheckWX is a tool to help pilots better visualize weather data.  It is not intended as a substitute for an official pre-flight weather briefing.

08:38:21 UTC

EHBK METAR
Maastricht Aachen Airport
Maastricht, The Netherlands
Current

13 mins ago

EHBK 170825Z AUTO VRB02KT 9000 OVC027 18/12 Q1016 NOSIG
Observed
Jul-17 @ 08:25 UTC
Wind
  • Variable at 2 KTS
Visibility
9,000 meters
Flight Rules
MVFR
Cloud Levels
  • Overcast at 2,700' AGL
Temperature
18°C / 64°F
Dewpoint
12°C / 54°F
Humidity
68%
Altimeter
30" Hg
Pressure
1015.92 hPa
Previous

43 mins ago

EHBK 170755Z AUTO VRB01KT 8000 OVC026 16/13 Q1016 NOSIG
Observed
Jul-17 @ 07:55 UTC
Wind
  • Variable at 1 KTS
Visibility
8,000 meters
Flight Rules
MVFR
Cloud Levels
  • Overcast at 2,600' AGL
Temperature
16°C / 61°F
Dewpoint
13°C / 55°F
Humidity
83%
Altimeter
30" Hg
Pressure
1015.92 hPa
Previous

1 hour ago

EHBK 170725Z AUTO VRB02KT 6000 OVC026 15/12 Q1016 BECMG 9999
Observed
Jul-17 @ 07:25 UTC
Wind
  • Variable at 2 KTS
Visibility
6,000 meters
Flight Rules
MVFR
Cloud Levels
  • Overcast at 2,600' AGL
Temperature
15°C / 59°F
Dewpoint
12°C / 54°F
Humidity
82%
Altimeter
30" Hg
Pressure
1015.92 hPa